sensor_id;sensor_type;location;lat;lon;timestamp;temperature;humidity
10411;DHT22;5251;52.112;8.606;2022-07-09T00:02:11;20.00;99.90
10411;DHT22;5251;52.112;8.606;2022-07-09T00:04:37;20.00;99.90
10411;DHT22;5251;52.112;8.606;2022-07-09T00:07:02;19.90;99.90
10411;DHT22;5251;52.112;8.606;2022-07-09T00:09:28;19.90;99.90
10411;DHT22;5251;52.112;8.606;2022-07-09T00:11:54;19.80;99.90
10411;DHT22;5251;52.112;8.606;2022-07-09T00:14:20;19.70;99.90
10411;DHT22;5251;52.112;8.606;2022-07-09T00:16:46;19.70;99.90
10411;DHT22;5251;52.112;8.606;2022-07-09T00:19:11;19.60;99.90
10411;DHT22;5251;52.112;8.606;2022-07-09T00:21:37;19.50;99.90
10411;DHT22;5251;52.112;8.606;2022-07-09T00:24:03;19.50;99.90
10411;DHT22;5251;52.112;8.606;2022-07-09T00:26:28;19.40;99.90
10411;DHT22;5251;52.112;8.606;2022-07-09T00:28:54;19.30;99.90
10411;DHT22;5251;52.112;8.606;2022-07-09T00:31:19;19.30;99.90
10411;DHT22;5251;52.112;8.606;2022-07-09T00:33:45;19.20;99.90
10411;DHT22;5251;52.112;8.606;2022-07-09T00:36:11;19.20;99.90
10411;DHT22;5251;52.112;8.606;2022-07-09T00:38:36;19.10;99.90
10411;DHT22;5251;52.112;8.606;2022-07-09T00:41:02;19.10;99.90
10411;DHT22;5251;52.112;8.606;2022-07-09T00:43:27;19.00;99.90
10411;DHT22;5251;52.112;8.606;2022-07-09T00:45:53;18.90;99.90
10411;DHT22;5251;52.112;8.606;2022-07-09T00:48:18;19.00;99.90
10411;DHT22;5251;52.112;8.606;2022-07-09T00:50:45;18.90;99.90
10411;DHT22;5251;52.112;8.606;2022-07-09T00:53:14;18.90;99.90
10411;DHT22;5251;52.112;8.606;2022-07-09T00:55:40;18.90;99.90
10411;DHT22;5251;52.112;8.606;2022-07-09T00:58:07;18.80;99.90
10411;DHT22;5251;52.112;8.606;2022-07-09T01:00:34;18.80;99.90
10411;DHT22;5251;52.112;8.606;2022-07-09T01:03:00;18.70;99.90
10411;DHT22;5251;52.112;8.606;2022-07-09T01:05:25;18.70;99.90
10411;DHT22;5251;52.112;8.606;2022-07-09T01:07:51;18.70;99.90
10411;DHT22;5251;52.112;8.606;2022-07-09T01:10:17;18.70;99.90
10411;DHT22;5251;52.112;8.606;2022-07-09T01:12:44;18.70;99.90
10411;DHT22;5251;52.112;8.606;2022-07-09T01:15:10;18.60;99.90
10411;DHT22;5251;52.112;8.606;2022-07-09T01:17:42;18.60;99.90
10411;DHT22;5251;52.112;8.606;2022-07-09T01:20:08;18.60;99.90
10411;DHT22;5251;52.112;8.606;2022-07-09T01:22:35;18.50;99.90
10411;DHT22;5251;52.112;8.606;2022-07-09T01:25:01;18.50;99.90
10411;DHT22;5251;52.112;8.606;2022-07-09T01:27:30;18.50;99.90
10411;DHT22;5251;52.112;8.606;2022-07-09T01:29:56;18.50;99.90
10411;DHT22;5251;52.112;8.606;2022-07-09T01:32:21;18.50;99.90
10411;DHT22;5251;52.112;8.606;2022-07-09T01:34:47;18.60;99.90
10411;DHT22;5251;52.112;8.606;2022-07-09T01:37:12;18.60;99.90
10411;DHT22;5251;52.112;8.606;2022-07-09T01:39:38;18.60;99.90
10411;DHT22;5251;52.112;8.606;2022-07-09T01:42:16;18.70;99.90
10411;DHT22;5251;52.112;8.606;2022-07-09T01:44:42;18.80;99.90
10411;DHT22;5251;52.112;8.606;2022-07-09T01:47:07;18.80;99.90
10411;DHT22;5251;52.112;8.606;2022-07-09T01:49:33;18.90;99.90
10411;DHT22;5251;52.112;8.606;2022-07-09T01:51:59;18.90;99.90
10411;DHT22;5251;52.112;8.606;2022-07-09T01:54:24;19.00;99.90
10411;DHT22;5251;52.112;8.606;2022-07-09T01:56:50;19.00;99.90
10411;DHT22;5251;52.112;8.606;2022-07-09T01:59:15;19.10;99.90
10411;DHT22;5251;52.112;8.606;2022-07-09T02:01:41;19.10;99.90
10411;DHT22;5251;52.112;8.606;2022-07-09T02:04:06;19.20;99.90
10411;DHT22;5251;52.112;8.606;2022-07-09T02:06:32;19.30;99.90
10411;DHT22;5251;52.112;8.606;2022-07-09T02:08:58;19.20;99.90
10411;DHT22;5251;52.112;8.606;2022-07-09T02:11:23;19.40;99.90
10411;DHT22;5251;52.112;8.606;2022-07-09T02:13:49;19.40;99.90
10411;DHT22;5251;52.112;8.606;2022-07-09T02:16:14;19.50;99.90
10411;DHT22;5251;52.112;8.606;2022-07-09T02:18:40;19.50;99.90
10411;DHT22;5251;52.112;8.606;2022-07-09T02:21:05;19.60;99.90
10411;DHT22;5251;52.112;8.606;2022-07-09T02:23:32;19.60;99.90
10411;DHT22;5251;52.112;8.606;2022-07-09T02:25:58;19.70;99.90
10411;DHT22;5251;52.112;8.606;2022-07-09T02:28:23;19.70;99.90
10411;DHT22;5251;52.112;8.606;2022-07-09T02:30:49;19.70;99.90
10411;DHT22;5251;52.112;8.606;2022-07-09T02:33:14;19.70;99.90
10411;DHT22;5251;52.112;8.606;2022-07-09T02:35:40;19.70;99.90
10411;DHT22;5251;52.112;8.606;2022-07-09T02:38:06;19.70;99.90
10411;DHT22;5251;52.112;8.606;2022-07-09T02:40:31;19.70;99.90
10411;DHT22;5251;52.112;8.606;2022-07-09T02:42:57;19.70;99.90
10411;DHT22;5251;52.112;8.606;2022-07-09T02:45:23;19.70;99.90
10411;DHT22;5251;52.112;8.606;2022-07-09T02:47:48;19.70;99.90
10411;DHT22;5251;52.112;8.606;2022-07-09T02:50:14;19.70;99.90
10411;DHT22;5251;52.112;8.606;2022-07-09T02:52:39;19.80;99.90
10411;DHT22;5251;52.112;8.606;2022-07-09T02:55:05;19.80;99.90
10411;DHT22;5251;52.112;8.606;2022-07-09T02:57:31;19.80;99.90
10411;DHT22;5251;52.112;8.606;2022-07-09T02:59:56;19.80;99.90
10411;DHT22;5251;52.112;8.606;2022-07-09T03:02:22;19.80;99.90
10411;DHT22;5251;52.112;8.606;2022-07-09T03:04:48;19.80;99.90
10411;DHT22;5251;52.112;8.606;2022-07-09T03:07:13;19.80;99.90
10411;DHT22;5251;52.112;8.606;2022-07-09T03:09:39;19.80;99.90
10411;DHT22;5251;52.112;8.606;2022-07-09T03:12:05;19.80;99.90
10411;DHT22;5251;52.112;8.606;2022-07-09T03:14:32;19.80;99.90
10411;DHT22;5251;52.112;8.606;2022-07-09T03:16:57;19.80;99.90
10411;DHT22;5251;52.112;8.606;2022-07-09T03:19:23;19.80;99.90
10411;DHT22;5251;52.112;8.606;2022-07-09T03:21:48;19.80;99.90
10411;DHT22;5251;52.112;8.606;2022-07-09T03:24:14;19.80;99.90
10411;DHT22;5251;52.112;8.606;2022-07-09T03:26:39;19.80;99.90
10411;DHT22;5251;52.112;8.606;2022-07-09T03:29:05;19.80;99.90
10411;DHT22;5251;52.112;8.606;2022-07-09T03:31:30;19.80;99.90
10411;DHT22;5251;52.112;8.606;2022-07-09T03:33:56;19.90;99.90
10411;DHT22;5251;52.112;8.606;2022-07-09T03:36:22;19.90;99.90
10411;DHT22;5251;52.112;8.606;2022-07-09T03:38:48;19.90;99.90
10411;DHT22;5251;52.112;8.606;2022-07-09T03:41:14;19.90;99.90
10411;DHT22;5251;52.112;8.606;2022-07-09T03:43:39;19.90;99.90
10411;DHT22;5251;52.112;8.606;2022-07-09T03:46:05;19.90;99.90
10411;DHT22;5251;52.112;8.606;2022-07-09T03:48:31;19.90;99.90
10411;DHT22;5251;52.112;8.606;2022-07-09T03:50:56;19.90;99.90
10411;DHT22;5251;52.112;8.606;2022-07-09T03:53:22;20.00;99.90
10411;DHT22;5251;52.112;8.606;2022-07-09T03:55:48;20.00;99.90
10411;DHT22;5251;52.112;8.606;2022-07-09T03:58:13;20.00;99.90
10411;DHT22;5251;52.112;8.606;2022-07-09T04:00:39;20.10;99.90
10411;DHT22;5251;52.112;8.606;2022-07-09T04:03:04;20.10;99.90
10411;DHT22;5251;52.112;8.606;2022-07-09T04:05:30;20.10;99.90
10411;DHT22;5251;52.112;8.606;2022-07-09T04:07:56;20.10;99.90
10411;DHT22;5251;52.112;8.606;2022-07-09T04:10:22;20.10;99.90
10411;DHT22;5251;52.112;8.606;2022-07-09T04:12:47;20.10;99.90
10411;DHT22;5251;52.112;8.606;2022-07-09T04:15:13;20.10;99.90
10411;DHT22;5251;52.112;8.606;2022-07-09T04:17:39;20.10;99.90
10411;DHT22;5251;52.112;8.606;2022-07-09T04:20:05;20.10;99.90
10411;DHT22;5251;52.112;8.606;2022-07-09T04:22:30;20.10;99.90
10411;DHT22;5251;52.112;8.606;2022-07-09T04:24:56;20.20;99.90
10411;DHT22;5251;52.112;8.606;2022-07-09T04:27:22;20.20;99.90
10411;DHT22;5251;52.112;8.606;2022-07-09T04:29:47;20.20;99.90
10411;DHT22;5251;52.112;8.606;2022-07-09T04:32:13;20.30;99.90
10411;DHT22;5251;52.112;8.606;2022-07-09T04:34:41;20.30;99.90
10411;DHT22;5251;52.112;8.606;2022-07-09T04:37:06;20.40;99.90
10411;DHT22;5251;52.112;8.606;2022-07-09T04:39:32;20.40;99.90
10411;DHT22;5251;52.112;8.606;2022-07-09T04:41:58;20.40;99.90
10411;DHT22;5251;52.112;8.606;2022-07-09T04:44:24;20.50;99.90
10411;DHT22;5251;52.112;8.606;2022-07-09T04:46:49;20.50;99.90
10411;DHT22;5251;52.112;8.606;2022-07-09T04:49:15;20.60;99.90
10411;DHT22;5251;52.112;8.606;2022-07-09T04:51:40;20.60;99.90
10411;DHT22;5251;52.112;8.606;2022-07-09T04:54:06;20.60;99.90
10411;DHT22;5251;52.112;8.606;2022-07-09T04:56:32;20.70;99.90
10411;DHT22;5251;52.112;8.606;2022-07-09T04:58:57;20.70;99.90
10411;DHT22;5251;52.112;8.606;2022-07-09T05:01:25;20.80;99.90
10411;DHT22;5251;52.112;8.606;2022-07-09T05:03:52;20.80;99.90
10411;DHT22;5251;52.112;8.606;2022-07-09T05:06:18;20.90;99.90
10411;DHT22;5251;52.112;8.606;2022-07-09T05:08:44;20.90;99.90
10411;DHT22;5251;52.112;8.606;2022-07-09T05:11:10;20.90;99.90
10411;DHT22;5251;52.112;8.606;2022-07-09T05:13:37;20.90;99.90
10411;DHT22;5251;52.112;8.606;2022-07-09T05:16:03;21.00;99.90
10411;DHT22;5251;52.112;8.606;2022-07-09T05:18:29;21.00;99.90
10411;DHT22;5251;52.112;8.606;2022-07-09T05:20:56;21.00;99.90
10411;DHT22;5251;52.112;8.606;2022-07-09T05:23:21;21.00;99.90
10411;DHT22;5251;52.112;8.606;2022-07-09T05:25:47;21.10;99.90
10411;DHT22;5251;52.112;8.606;2022-07-09T05:28:13;21.10;99.90
10411;DHT22;5251;52.112;8.606;2022-07-09T05:30:38;21.10;99.90
10411;DHT22;5251;52.112;8.606;2022-07-09T05:33:05;21.10;99.90
10411;DHT22;5251;52.112;8.606;2022-07-09T05:35:30;21.20;99.90
10411;DHT22;5251;52.112;8.606;2022-07-09T05:37:56;21.20;99.90
10411;DHT22;5251;52.112;8.606;2022-07-09T05:40:22;21.20;99.90
10411;DHT22;5251;52.112;8.606;2022-07-09T05:42:48;21.20;99.90
10411;DHT22;5251;52.112;8.606;2022-07-09T05:45:13;21.20;99.90
10411;DHT22;5251;52.112;8.606;2022-07-09T05:47:39;21.20;99.90
10411;DHT22;5251;52.112;8.606;2022-07-09T05:50:05;21.30;99.90
10411;DHT22;5251;52.112;8.606;2022-07-09T05:52:31;21.30;99.90
10411;DHT22;5251;52.112;8.606;2022-07-09T05:54:57;21.40;99.90
10411;DHT22;5251;52.112;8.606;2022-07-09T05:57:23;21.50;99.90
10411;DHT22;5251;52.112;8.606;2022-07-09T05:59:48;21.50;99.90
10411;DHT22;5251;52.112;8.606;2022-07-09T06:02:14;21.60;99.90
10411;DHT22;5251;52.112;8.606;2022-07-09T06:04:39;21.70;99.90
10411;DHT22;5251;52.112;8.606;2022-07-09T06:07:05;21.80;99.90
10411;DHT22;5251;52.112;8.606;2022-07-09T06:09:31;21.90;99.90
10411;DHT22;5251;52.112;8.606;2022-07-09T06:11:56;22.00;99.90
10411;DHT22;5251;52.112;8.606;2022-07-09T06:14:22;22.10;99.90
10411;DHT22;5251;52.112;8.606;2022-07-09T06:16:48;22.10;99.90
10411;DHT22;5251;52.112;8.606;2022-07-09T06:19:14;22.20;99.90
10411;DHT22;5251;52.112;8.606;2022-07-09T06:21:40;22.20;99.90
10411;DHT22;5251;52.112;8.606;2022-07-09T06:24:06;22.30;99.90
10411;DHT22;5251;52.112;8.606;2022-07-09T06:26:32;22.30;99.90
10411;DHT22;5251;52.112;8.606;2022-07-09T06:28:59;22.40;99.90
10411;DHT22;5251;52.112;8.606;2022-07-09T06:31:25;22.50;99.90
10411;DHT22;5251;52.112;8.606;2022-07-09T06:33:50;22.60;99.90
10411;DHT22;5251;52.112;8.606;2022-07-09T06:36:16;22.60;99.90
10411;DHT22;5251;52.112;8.606;2022-07-09T06:38:41;22.70;99.90
10411;DHT22;5251;52.112;8.606;2022-07-09T06:41:25;22.80;99.90
10411;DHT22;5251;52.112;8.606;2022-07-09T06:43:51;22.90;99.90
10411;DHT22;5251;52.112;8.606;2022-07-09T06:46:17;22.90;99.90
10411;DHT22;5251;52.112;8.606;2022-07-09T06:48:42;23.00;99.90
10411;DHT22;5251;52.112;8.606;2022-07-09T06:51:08;23.10;99.90
10411;DHT22;5251;52.112;8.606;2022-07-09T06:53:33;23.10;99.90
10411;DHT22;5251;52.112;8.606;2022-07-09T06:55:59;23.20;99.90
10411;DHT22;5251;52.112;8.606;2022-07-09T06:58:24;23.30;99.90
10411;DHT22;5251;52.112;8.606;2022-07-09T07:00:50;23.40;99.90
10411;DHT22;5251;52.112;8.606;2022-07-09T07:03:15;23.40;99.90
10411;DHT22;5251;52.112;8.606;2022-07-09T07:05:41;23.40;99.90
10411;DHT22;5251;52.112;8.606;2022-07-09T07:08:07;23.50;99.60
10411;DHT22;5251;52.112;8.606;2022-07-09T07:10:32;23.60;99.90
10411;DHT22;5251;52.112;8.606;2022-07-09T07:12:58;23.70;99.40
10411;DHT22;5251;52.112;8.606;2022-07-09T07:15:23;23.80;98.70
10411;DHT22;5251;52.112;8.606;2022-07-09T07:17:49;23.90;98.70
10411;DHT22;5251;52.112;8.606;2022-07-09T07:20:15;24.00;97.80
10411;DHT22;5251;52.112;8.606;2022-07-09T07:22:43;24.10;97.60
10411;DHT22;5251;52.112;8.606;2022-07-09T07:25:09;24.30;97.40
10411;DHT22;5251;52.112;8.606;2022-07-09T07:27:34;24.30;96.40
10411;DHT22;5251;52.112;8.606;2022-07-09T07:30:00;24.40;96.30
10411;DHT22;5251;52.112;8.606;2022-07-09T07:32:25;24.50;96.60
10411;DHT22;5251;52.112;8.606;2022-07-09T07:34:51;24.50;96.40
10411;DHT22;5251;52.112;8.606;2022-07-09T07:37:17;24.60;95.50
10411;DHT22;5251;52.112;8.606;2022-07-09T07:39:42;24.70;95.00
10411;DHT22;5251;52.112;8.606;2022-07-09T07:42:08;24.70;94.80
10411;DHT22;5251;52.112;8.606;2022-07-09T07:44:33;24.80;94.80
10411;DHT22;5251;52.112;8.606;2022-07-09T07:46:59;24.90;94.20
10411;DHT22;5251;52.112;8.606;2022-07-09T07:49:24;24.90;93.00
10411;DHT22;5251;52.112;8.606;2022-07-09T07:51:50;25.00;93.00
10411;DHT22;5251;52.112;8.606;2022-07-09T07:54:15;25.10;93.40
10411;DHT22;5251;52.112;8.606;2022-07-09T07:56:41;25.20;93.40
10411;DHT22;5251;52.112;8.606;2022-07-09T07:59:07;25.20;93.10
10411;DHT22;5251;52.112;8.606;2022-07-09T08:01:32;25.30;93.00
10411;DHT22;5251;52.112;8.606;2022-07-09T08:03:58;25.40;93.00
10411;DHT22;5251;52.112;8.606;2022-07-09T08:06:24;25.60;92.50
10411;DHT22;5251;52.112;8.606;2022-07-09T08:08:49;25.70;92.70
10411;DHT22;5251;52.112;8.606;2022-07-09T08:11:15;25.90;92.20
10411;DHT22;5251;52.112;8.606;2022-07-09T08:13:41;26.00;89.80
10411;DHT22;5251;52.112;8.606;2022-07-09T08:16:07;26.10;90.00
10411;DHT22;5251;52.112;8.606;2022-07-09T08:18:32;26.30;88.50
10411;DHT22;5251;52.112;8.606;2022-07-09T08:20:58;26.40;86.10
10411;DHT22;5251;52.112;8.606;2022-07-09T08:23:24;26.60;88.10
10411;DHT22;5251;52.112;8.606;2022-07-09T08:25:49;26.70;86.80
10411;DHT22;5251;52.112;8.606;2022-07-09T08:28:15;26.80;86.20
10411;DHT22;5251;52.112;8.606;2022-07-09T08:30:41;27.00;83.00
10411;DHT22;5251;52.112;8.606;2022-07-09T08:33:07;27.10;82.00
10411;DHT22;5251;52.112;8.606;2022-07-09T08:35:33;27.20;83.20
10411;DHT22;5251;52.112;8.606;2022-07-09T08:37:58;27.30;82.70
10411;DHT22;5251;52.112;8.606;2022-07-09T08:40:25;27.30;82.30
10411;DHT22;5251;52.112;8.606;2022-07-09T08:42:53;27.30;81.40
10411;DHT22;5251;52.112;8.606;2022-07-09T08:45:20;27.30;81.40
10411;DHT22;5251;52.112;8.606;2022-07-09T08:47:46;27.20;81.20
10411;DHT22;5251;52.112;8.606;2022-07-09T08:50:12;27.20;81.10
10411;DHT22;5251;52.112;8.606;2022-07-09T08:52:40;27.20;81.10
10411;DHT22;5251;52.112;8.606;2022-07-09T08:55:07;27.10;81.20
10411;DHT22;5251;52.112;8.606;2022-07-09T08:57:34;27.10;80.30
10411;DHT22;5251;52.112;8.606;2022-07-09T09:00:04;27.10;79.50
10411;DHT22;5251;52.112;8.606;2022-07-09T09:02:37;27.10;79.50
10411;DHT22;5251;52.112;8.606;2022-07-09T09:05:21;27.10;78.90
10411;DHT22;5251;52.112;8.606;2022-07-09T09:07:46;27.00;79.10
10411;DHT22;5251;52.112;8.606;2022-07-09T09:10:28;27.00;78.90
10411;DHT22;5251;52.112;8.606;2022-07-09T09:12:57;27.00;78.90
10411;DHT22;5251;52.112;8.606;2022-07-09T09:15:24;27.00;77.20
10411;DHT22;5251;52.112;8.606;2022-07-09T09:17:50;27.00;77.90
10411;DHT22;5251;52.112;8.606;2022-07-09T09:20:16;26.90;78.50
10411;DHT22;5251;52.112;8.606;2022-07-09T09:22:53;26.90;77.90
10411;DHT22;5251;52.112;8.606;2022-07-09T09:25:25;26.90;78.80
10411;DHT22;5251;52.112;8.606;2022-07-09T09:30:17;26.90;78.10
10411;DHT22;5251;52.112;8.606;2022-07-09T09:32:43;26.90;78.50
10411;DHT22;5251;52.112;8.606;2022-07-09T09:35:08;27.00;78.30
10411;DHT22;5251;52.112;8.606;2022-07-09T09:37:34;26.90;78.80
10411;DHT22;5251;52.112;8.606;2022-07-09T09:40:10;27.00;77.20
10411;DHT22;5251;52.112;8.606;2022-07-09T09:42:40;27.10;77.90
10411;DHT22;5251;52.112;8.606;2022-07-09T09:45:07;27.10;77.70
10411;DHT22;5251;52.112;8.606;2022-07-09T09:47:33;27.10;77.30
10411;DHT22;5251;52.112;8.606;2022-07-09T09:50:00;27.10;76.40
10411;DHT22;5251;52.112;8.606;2022-07-09T09:52:26;27.10;76.00
10411;DHT22;5251;52.112;8.606;2022-07-09T09:54:52;27.10;76.00
10411;DHT22;5251;52.112;8.606;2022-07-09T09:57:19;27.10;75.00
10411;DHT22;5251;52.112;8.606;2022-07-09T09:59:46;27.00;76.10
10411;DHT22;5251;52.112;8.606;2022-07-09T10:02:12;27.00;76.50
10411;DHT22;5251;52.112;8.606;2022-07-09T10:04:43;26.80;79.50
10411;DHT22;5251;52.112;8.606;2022-07-09T10:07:11;26.70;80.80
10411;DHT22;5251;52.112;8.606;2022-07-09T10:09:37;26.70;82.00
10411;DHT22;5251;52.112;8.606;2022-07-09T10:12:03;26.60;83.30
10411;DHT22;5251;52.112;8.606;2022-07-09T10:14:32;26.60;84.20
10411;DHT22;5251;52.112;8.606;2022-07-09T10:17:13;26.60;85.70
10411;DHT22;5251;52.112;8.606;2022-07-09T10:19:54;26.70;85.00
10411;DHT22;5251;52.112;8.606;2022-07-09T10:22:42;26.70;84.30
10411;DHT22;5251;52.112;8.606;2022-07-09T10:25:27;26.80;82.90
10411;DHT22;5251;52.112;8.606;2022-07-09T10:27:53;26.90;82.90
10411;DHT22;5251;52.112;8.606;2022-07-09T10:33:02;27.10;81.90
10411;DHT22;5251;52.112;8.606;2022-07-09T10:35:28;27.20;79.80
10411;DHT22;5251;52.112;8.606;2022-07-09T10:37:54;27.40;80.00
10411;DHT22;5251;52.112;8.606;2022-07-09T10:40:20;27.50;79.30
10411;DHT22;5251;52.112;8.606;2022-07-09T10:43:00;27.70;78.30
10411;DHT22;5251;52.112;8.606;2022-07-09T10:45:36;27.70;78.20
10411;DHT22;5251;52.112;8.606;2022-07-09T10:48:04;27.80;77.00
10411;DHT22;5251;52.112;8.606;2022-07-09T10:50:31;27.90;76.50
10411;DHT22;5251;52.112;8.606;2022-07-09T10:52:59;27.90;73.90
10411;DHT22;5251;52.112;8.606;2022-07-09T10:55:26;28.00;74.90
10411;DHT22;5251;52.112;8.606;2022-07-09T10:57:53;28.00;73.10
10411;DHT22;5251;52.112;8.606;2022-07-09T11:00:29;28.00;72.50
10411;DHT22;5251;52.112;8.606;2022-07-09T11:03:04;28.10;74.60
10411;DHT22;5251;52.112;8.606;2022-07-09T11:05:32;28.10;71.60
10411;DHT22;5251;52.112;8.606;2022-07-09T11:08:07;28.10;71.80
10411;DHT22;5251;52.112;8.606;2022-07-09T11:10:37;28.20;71.50
10411;DHT22;5251;52.112;8.606;2022-07-09T11:13:05;28.30;72.40
10411;DHT22;5251;52.112;8.606;2022-07-09T11:15:33;28.40;71.90
10411;DHT22;5251;52.112;8.606;2022-07-09T11:20:32;28.70;70.80
10411;DHT22;5251;52.112;8.606;2022-07-09T11:22:58;28.80;67.70
10411;DHT22;5251;52.112;8.606;2022-07-09T11:25:26;28.80;67.40
10411;DHT22;5251;52.112;8.606;2022-07-09T11:27:59;28.90;67.50
10411;DHT22;5251;52.112;8.606;2022-07-09T11:30:26;28.90;67.70
10411;DHT22;5251;52.112;8.606;2022-07-09T11:32:53;29.00;67.50
10411;DHT22;5251;52.112;8.606;2022-07-09T11:35:32;28.90;66.50
10411;DHT22;5251;52.112;8.606;2022-07-09T11:38:00;28.90;66.50
10411;DHT22;5251;52.112;8.606;2022-07-09T11:40:26;28.90;65.30
10411;DHT22;5251;52.112;8.606;2022-07-09T11:42:53;28.90;64.40
10411;DHT22;5251;52.112;8.606;2022-07-09T11:45:25;28.80;63.70
10411;DHT22;5251;52.112;8.606;2022-07-09T11:48:10;28.80;64.40
10411;DHT22;5251;52.112;8.606;2022-07-09T11:50:43;28.70;66.20
10411;DHT22;5251;52.112;8.606;2022-07-09T11:53:22;28.70;63.30
10411;DHT22;5251;52.112;8.606;2022-07-09T11:56:01;28.60;63.70
10411;DHT22;5251;52.112;8.606;2022-07-09T11:58:27;28.50;62.20
10411;DHT22;5251;52.112;8.606;2022-07-09T12:00:53;28.30;65.90
10411;DHT22;5251;52.112;8.606;2022-07-09T12:03:26;28.10;71.60
10411;DHT22;5251;52.112;8.606;2022-07-09T12:05:52;27.60;92.90
10411;DHT22;5251;52.112;8.606;2022-07-09T12:08:31;27.00;99.80
10411;DHT22;5251;52.112;8.606;2022-07-09T12:10:58;26.50;99.90
10411;DHT22;5251;52.112;8.606;2022-07-09T12:13:23;25.90;99.90
10411;DHT22;5251;52.112;8.606;2022-07-09T12:15:49;25.40;99.90
10411;DHT22;5251;52.112;8.606;2022-07-09T12:18:15;25.00;99.90
10411;DHT22;5251;52.112;8.606;2022-07-09T12:20:40;24.60;99.90
10411;DHT22;5251;52.112;8.606;2022-07-09T12:23:06;24.30;99.90
10411;DHT22;5251;52.112;8.606;2022-07-09T12:25:32;24.00;99.90
10411;DHT22;5251;52.112;8.606;2022-07-09T12:27:58;23.80;99.90
10411;DHT22;5251;52.112;8.606;2022-07-09T12:30:23;23.60;99.90
10411;DHT22;5251;52.112;8.606;2022-07-09T12:32:49;23.40;99.90
10411;DHT22;5251;52.112;8.606;2022-07-09T12:35:15;23.20;99.90
10411;DHT22;5251;52.112;8.606;2022-07-09T12:37:41;23.10;99.90
10411;DHT22;5251;52.112;8.606;2022-07-09T12:40:09;23.00;99.90
10411;DHT22;5251;52.112;8.606;2022-07-09T12:42:39;22.80;99.90
10411;DHT22;5251;52.112;8.606;2022-07-09T12:45:05;22.70;99.90
10411;DHT22;5251;52.112;8.606;2022-07-09T12:47:31;22.60;99.90
10411;DHT22;5251;52.112;8.606;2022-07-09T12:49:57;22.50;99.90
10411;DHT22;5251;52.112;8.606;2022-07-09T12:52:22;22.40;99.90
10411;DHT22;5251;52.112;8.606;2022-07-09T12:54:48;22.40;99.90
10411;DHT22;5251;52.112;8.606;2022-07-09T12:57:13;22.30;99.90
10411;DHT22;5251;52.112;8.606;2022-07-09T12:59:39;22.30;99.90
10411;DHT22;5251;52.112;8.606;2022-07-09T13:02:05;22.30;99.90
10411;DHT22;5251;52.112;8.606;2022-07-09T13:04:31;22.40;99.90
10411;DHT22;5251;52.112;8.606;2022-07-09T13:06:57;22.40;99.90
10411;DHT22;5251;52.112;8.606;2022-07-09T13:09:23;22.60;99.90
10411;DHT22;5251;52.112;8.606;2022-07-09T13:11:48;22.70;99.90
10411;DHT22;5251;52.112;8.606;2022-07-09T13:14:15;22.90;99.90
10411;DHT22;5251;52.112;8.606;2022-07-09T13:16:40;23.00;99.90
10411;DHT22;5251;52.112;8.606;2022-07-09T13:19:06;23.20;99.90
10411;DHT22;5251;52.112;8.606;2022-07-09T13:21:32;23.30;99.90
10411;DHT22;5251;52.112;8.606;2022-07-09T13:23:57;23.40;99.90
10411;DHT22;5251;52.112;8.606;2022-07-09T13:26:23;23.50;99.90
10411;DHT22;5251;52.112;8.606;2022-07-09T13:28:49;23.70;99.90
10411;DHT22;5251;52.112;8.606;2022-07-09T13:31:15;23.80;99.90
10411;DHT22;5251;52.112;8.606;2022-07-09T13:33:41;24.00;99.90
10411;DHT22;5251;52.112;8.606;2022-07-09T13:36:07;24.20;99.90
10411;DHT22;5251;52.112;8.606;2022-07-09T13:38:34;24.40;99.90
10411;DHT22;5251;52.112;8.606;2022-07-09T13:41:00;24.60;98.90
10411;DHT22;5251;52.112;8.606;2022-07-09T13:43:26;24.70;93.80
10411;DHT22;5251;52.112;8.606;2022-07-09T13:45:56;24.80;92.60
10411;DHT22;5251;52.112;8.606;2022-07-09T13:48:23;25.00;92.70
10411;DHT22;5251;52.112;8.606;2022-07-09T13:50:48;25.10;89.60
10411;DHT22;5251;52.112;8.606;2022-07-09T13:53:14;25.20;84.80
10411;DHT22;5251;52.112;8.606;2022-07-09T13:55:40;25.30;84.10
10411;DHT22;5251;52.112;8.606;2022-07-09T13:58:06;25.40;84.40
10411;DHT22;5251;52.112;8.606;2022-07-09T14:00:32;25.60;85.10
10411;DHT22;5251;52.112;8.606;2022-07-09T14:02:57;25.70;82.20
10411;DHT22;5251;52.112;8.606;2022-07-09T14:05:23;25.90;79.50
10411;DHT22;5251;52.112;8.606;2022-07-09T14:07:48;26.00;80.50
10411;DHT22;5251;52.112;8.606;2022-07-09T14:10:14;26.10;79.20
10411;DHT22;5251;52.112;8.606;2022-07-09T14:12:40;26.10;77.10
10411;DHT22;5251;52.112;8.606;2022-07-09T14:15:06;26.20;76.20
10411;DHT22;5251;52.112;8.606;2022-07-09T14:17:32;26.20;75.00
10411;DHT22;5251;52.112;8.606;2022-07-09T14:19:57;26.30;72.80
10411;DHT22;5251;52.112;8.606;2022-07-09T14:22:26;26.20;75.20
10411;DHT22;5251;52.112;8.606;2022-07-09T14:24:53;26.20;73.60
10411;DHT22;5251;52.112;8.606;2022-07-09T14:27:19;26.20;74.20
10411;DHT22;5251;52.112;8.606;2022-07-09T14:29:45;26.20;74.40
10411;DHT22;5251;52.112;8.606;2022-07-09T14:32:11;26.20;76.30
10411;DHT22;5251;52.112;8.606;2022-07-09T14:34:36;26.10;71.80
10411;DHT22;5251;52.112;8.606;2022-07-09T14:37:02;26.10;71.30
10411;DHT22;5251;52.112;8.606;2022-07-09T14:39:28;26.20;70.60
10411;DHT22;5251;52.112;8.606;2022-07-09T14:41:53;26.10;70.40
10411;DHT22;5251;52.112;8.606;2022-07-09T14:44:19;26.10;71.00
10411;DHT22;5251;52.112;8.606;2022-07-09T14:46:45;26.10;73.10
10411;DHT22;5251;52.112;8.606;2022-07-09T14:49:11;26.10;72.30
10411;DHT22;5251;52.112;8.606;2022-07-09T14:51:38;26.20;74.00
10411;DHT22;5251;52.112;8.606;2022-07-09T14:54:04;26.20;70.80
10411;DHT22;5251;52.112;8.606;2022-07-09T14:56:30;26.30;71.00
10411;DHT22;5251;52.112;8.606;2022-07-09T14:58:56;26.40;72.60
10411;DHT22;5251;52.112;8.606;2022-07-09T15:01:21;26.40;70.90
10411;DHT22;5251;52.112;8.606;2022-07-09T15:03:47;26.50;69.90
10411;DHT22;5251;52.112;8.606;2022-07-09T15:06:13;26.60;69.40
10411;DHT22;5251;52.112;8.606;2022-07-09T15:08:39;26.70;69.10
10411;DHT22;5251;52.112;8.606;2022-07-09T15:11:05;26.70;65.90
10411;DHT22;5251;52.112;8.606;2022-07-09T15:13:31;26.70;65.90
10411;DHT22;5251;52.112;8.606;2022-07-09T15:15:56;26.70;67.70
10411;DHT22;5251;52.112;8.606;2022-07-09T15:18:22;26.80;67.70
10411;DHT22;5251;52.112;8.606;2022-07-09T15:20:48;26.80;67.60
10411;DHT22;5251;52.112;8.606;2022-07-09T15:23:14;26.90;67.40
10411;DHT22;5251;52.112;8.606;2022-07-09T15:25:39;26.90;68.20
10411;DHT22;5251;52.112;8.606;2022-07-09T15:28:05;26.90;67.50
10411;DHT22;5251;52.112;8.606;2022-07-09T15:30:31;26.90;68.50
10411;DHT22;5251;52.112;8.606;2022-07-09T15:32:58;26.90;67.10
10411;DHT22;5251;52.112;8.606;2022-07-09T15:35:23;26.80;66.00
10411;DHT22;5251;52.112;8.606;2022-07-09T15:37:49;26.70;66.80
10411;DHT22;5251;52.112;8.606;2022-07-09T15:40:15;26.60;66.60
10411;DHT22;5251;52.112;8.606;2022-07-09T15:42:42;26.50;67.60
10411;DHT22;5251;52.112;8.606;2022-07-09T15:45:12;26.40;66.50
10411;DHT22;5251;52.112;8.606;2022-07-09T15:47:38;26.40;66.60
10411;DHT22;5251;52.112;8.606;2022-07-09T15:50:05;26.40;66.40